• 1
  • 2
  • 1

 

 

 
NEU! ab. 1.4.
Nortel Info 128,740 MHz

WebCam

  
Kamera Halle
Kamera Vorfeld
Wetter EDDS

METAR

EDDS 190050Z 02007KT 340V040 9999 SCT025 BKN042 01/M05 Q1016 NOSIG =
EDDS 182300Z 1900/1924 36006KT 9999 BKN040 BECMG 1911/1914 06010KT PROB30 TEMPO 1912/1918 4000 -SNRA BKN014


TAF

EDDS 182300Z 1900/1924 36006KT 9999 BKN040 BECMG 1911/1914 06010KT PROB30 TEMPO 1912/1918 4000 -SNRA BKN014 =


SR/SS

06:35 / 15:37 UTC
(EDSO 19-11-2018)